South Waterford, Maine
Current Conditions -  °F | °C
As of 10:54 AM on Wednesday 28 Jan 2015 (Local Time) from KIZG Reporting Station
Overcast Overcast  
Wind Chill:   Ceiling: 6500
Heat Index: 19°   Visibility: 10mi
Dew Point:   Wind: 12mph
Humidity: 52%   Direction: 350°N
Pressure: 29.93"   Gusts: 20mph
Location:  44.17°N, 70.72°W
Report Text: KIZG 281554Z AUTO 35010G17KT 10SM OVC065 M07/M16 A2993 RMK AO2 SLP144 T10721156
Loading
Personal Weather Stations






























Interactive Weather Map New forecast layout! Learn more

10-Day Weather Forecast

Advertisements
Track Severe Weather on mobile